Terminal Aerodrome Forecast
Issued by NWS Oklahoma City, OK

Current Version | Previous Version | Text Only | Print | Product List | Glossary On
Versions: 1 2 3 4 5 6 7 8 9 10 11 12 13 14 15 16 17 18 19 20
000
FTUS44 KOUN 011737
TAFOUN
TAF
KOUN 011737Z 0118/0218 35013G19KT P6SM SCT100
     FM012300 35010KT P6SM OVC060=

USA.gov is the U.S. government's official web portal to all federal, state and local government web resources and services.